• Join FlightAware (Why Join?)
  • Login
  • US Flag 
02:53PM EDT


 

Airport Tracker/Info


-or-


 

Live Flight TrackerFlight Track Log ✈ KAP29 ✈ 08-Jun-2013 ✈ KBOS - KSLK

Flight Track Log - Related Links

Times and Time Zones

All times are in EDT time to prevent confusion due to time zone crossing. See the KAP29 flight status page for this flight to view local times or setup timezone preferences in your user account.

Time Position Orientation Groundspeed Altitude Reporting Facility
EDT Latitude Longitude Course Direction KTS MPH feet Rate Location/Type
01:39PM 42.3667 -71.0167 216° Southwest 111 128 400  Level KA90
01:40PM 42.3500 -71.0333 216° Southwest 108 124 1,100 780 Climbing KA90
01:41PM 42.3833 -71.0667 324° Northwest 109 125 1,900 660 Climbing KA90
01:42PM 42.4000 -71.0833 324° Northwest 101 116 2,500 480 Climbing KA90
01:43PM 42.4333 -71.0833 360° North 112 129 3,000 420 Climbing KA90
01:44PM 42.4667 -71.0833 360° North 108 124 3,500 480 Climbing KA90
01:45PM 42.4833 -71.0833 360° North 99 114 4,000 480 Climbing KA90
01:46PM 42.5167 -71.1000 340° North 100 115 4,400 540 Climbing KA90
01:47PM 42.5500 -71.1167 340° North 93 107 5,200 540 Climbing KA90
01:48PM 42.5667 -71.1333 324° Northwest 96 110 5,700 480 Climbing KA90
01:49PM 42.5833 -71.1500 324° Northwest 100 115 6,200 420 Climbing KA90
01:50PM 42.6167 -71.1667 340° North 107 123 6,500 360 Climbing KA90
01:51PM 42.6500 -71.1833 340° North 113 130 6,900 420 Climbing KA90
01:52PM 42.6667 -71.2000 324° Northwest 114 131 7,400 420 Climbing KA90
01:53PM 42.7000 -71.2333 324° Northwest 115 132 7,700 360 Climbing KA90
01:54PM 42.7333 -71.2500 340° North 124 143 8,100 180 Climbing KA90
01:55PM 42.7667 -71.2833 324° Northwest 142 163 8,100  Level KA90
01:56PM 42.8000 -71.3167 324° Northwest 153 176 8,100  Level KA90
01:57PM 42.8167 -71.3500 304° West 144 166 8,100  Level KA90
01:58PM 42.8500 -71.3833 324° Northwest 141 162 8,100  Level KA90
01:59PM 42.8667 -71.4167 304° West 141 162 8,100  Level KA90
02:00PM 42.9000 -71.4667 312° West 137 158 8,100  Level KA90
02:01PM 42.9333 -71.5000 324° Northwest 141 162 8,100  Level KA90
02:02PM 42.9500 -71.5333 304° West 140 161 8,100  Level KA90
02:03PM 42.9833 -71.5833 312° West 145 167 8,100 -60 Level KA90
02:04PM 43.0186 -71.6392 311° West 158 182 8,000  Descending Boston Center
02:05PM 43.0417 -71.6703 315° West 147 169 8,100  Climbing Boston Center
02:06PM 43.0733 -71.7181 312° West 147 169 8,100  Level Boston Center
02:07PM 43.0986 -71.7547 313° West 147 169 8,100  Level Boston Center
02:08PM 43.1300 -71.7972 315° West 147 169 8,100  Level Boston Center
02:09PM 43.1553 -71.8311 316° Northwest 142 163 8,100 -60 Level Boston Center
02:10PM 43.1867 -71.8764 314° West 147 169 8,000 -60 Descending Boston Center
02:11PM 43.2119 -71.9131 313° West 147 169 8,000  Level Boston Center
02:12PM 43.2456 -71.9583 316° Northwest 147 169 8,000  Level Boston Center
02:13PM 43.2706 -71.9953 313° West 147 169 8,000  Level Boston Center
02:14PM 43.3000 -72.0406 312° West 147 169 8,000  Level Boston Center
02:15PM 43.3294 -72.0806 315° West 147 169 8,000  Level Boston Center
02:16PM 43.3608 -72.1231 315° West 147 169 8,000  Level Boston Center
02:17PM 43.3922 -72.1714 312° West 142 163 8,000  Level Boston Center
02:18PM 43.4214 -72.2114 315° West 142 163 8,000  Level Boston Center
02:19PM 43.4486 -72.2542 311° West 142 163 8,000  Level Boston Center
02:20PM 43.4756 -72.2942 313° West 142 163 8,000  Level Boston Center
02:21PM 43.5028 -72.3342 313° West 142 163 8,000  Level Boston Center
02:22PM 43.5300 -72.3714 315° West 142 163 8,000  Level Boston Center
02:23PM 43.5569 -72.4114 313° West 142 163 8,000  Level Boston Center
02:24PM 43.5842 -72.4517 313° West 142 163 8,000  Level Boston Center
02:25PM 43.6111 -72.4947 311° West 142 163 8,000  Level Boston Center
02:26PM 43.6403 -72.5347 315° West 142 163 8,000  Level Boston Center
02:27PM 43.6675 -72.5722 315° West 142 163 8,000  Level Boston Center
02:28PM 43.6944 -72.6153 311° West 147 169 8,000  Level Boston Center
02:29PM 43.7194 -72.6469 318° Northwest 147 169 8,100  Climbing Boston Center
02:30PM 43.7483 -72.6931 311° West 147 169 8,100  Level Boston Center
02:31PM 43.7733 -72.7333 311° West 147 169 8,100  Level Boston Center
02:32PM 43.8025 -72.7739 315° West 147 169 8,100  Level Boston Center
02:33PM 43.8314 -72.8172 313° West 147 169 8,100  Level Boston Center
02:34PM 43.8583 -72.8575 313° West 142 163 8,100  Level Boston Center
02:35PM 43.8875 -72.9011 313° West 142 163 8,100  Level Boston Center
02:36PM 43.9186 -72.9472 313° West 142 163 8,100  Level Boston Center
02:37PM 43.9453 -72.9881 312° West 142 163 8,100  Level Boston Center
02:38PM 43.9722 -73.0286 313° West 142 163 8,100  Level Boston Center
02:39PM 43.9992 -73.0692 313° West 142 163 8,100  Level Boston Center
02:40PM 44.0281 -73.1100 315° West 142 163 8,100  Level Boston Center
02:41PM 44.0569 -73.1536 313° West 142 163 8,100  Level Boston Center
02:42PM 44.0839 -73.1972 311° West 142 163 8,100  Level Boston Center
02:43PM 44.1128 -73.2381 315° West 142 163 8,100  Level Boston Center
02:44PM 44.1394 -73.2789 312° West 142 163 8,100  Level Boston Center
02:45PM 44.1683 -73.3228 313° West 142 163 8,100  Level Boston Center
02:46PM 44.1972 -73.3639 314° West 142 163 8,100  Level Boston Center
02:47PM 44.2239 -73.4078 310° West 154 177 8,100  Level Boston Center
02:48PM 44.2486 -73.4458 312° West 149 171 8,100  Level Boston Center
02:49PM 44.2775 -73.4897 313° West 149 171 8,100 -120 Level Boston Center
02:50PM 44.3122 -73.5397 314° West 149 171 7,900 -240 Descending Boston Center
02:52PM 44.3431 -73.5867 313° West 149 171 7,600 -360 Descending Boston Center
02:53PM 44.3822 -73.6456 313° West 154 177 7,200 -420 Descending Boston Center
02:54PM 44.4128 -73.6897 314° West 159 183 6,800 -360 Descending Boston Center
02:55PM 44.4436 -73.7369 312° West 159 183 6,500 -300 Descending Boston Center
02:56PM 44.4744 -73.7811 314° West 159 183 6,200 -300 Descending Boston Center
02:57PM 44.5050 -73.8344 309° West 159 183 6,000 -120 Descending Boston Center
02:58PM 44.5317 -73.8728 314° West 153 176 6,000 -120 Level Boston Center
02:59PM 44.5517 -73.9344 294° West 148 170 5,800 -240 Descending Boston Center
03:00PM 44.5656 -73.9961 288° West 148 170 5,500 -300 Descending Boston Center
03:01PM 44.5586 -74.0425 258° West 132 152 5,300 -300 Descending Boston Center
03:02PM 44.5228 -74.0736 212° Southwest 135 155 4,900 -480 Descending Boston Center
03:03PM 44.5017 -74.0961 217° Southwest 140 161 4,400 -780 Descending Boston Center
03:04PM 44.4592 -74.1358 214° Southwest 140 161 3,400 -780 Descending Boston Center
03:05PM 44.4256 -74.1697 216° Southwest 145 167 2,600 -600 Descending Boston Center
03:13PM 44.3925 -74.1976 211° Southwest  Level FlightAware Approximate